sensor_id;sensor_type;location;lat;lon;timestamp;P1;durP1;ratioP1;P2;durP2;ratioP2
19163;SDS011;9714;51.208;4.242;2023-09-19T00:01:07;12.20;;;2.03;;
19163;SDS011;9714;51.208;4.242;2023-09-19T00:03:35;12.57;;;1.53;;
19163;SDS011;9714;51.208;4.242;2023-09-19T00:06:05;12.07;;;2.50;;
19163;SDS011;9714;51.208;4.242;2023-09-19T00:08:33;15.70;;;2.13;;
19163;SDS011;9714;51.208;4.242;2023-09-19T00:11:01;11.93;;;3.40;;
19163;SDS011;9714;51.208;4.242;2023-09-19T00:13:29;14.30;;;2.77;;
19163;SDS011;9714;51.208;4.242;2023-09-19T00:15:57;12.50;;;2.07;;
19163;SDS011;9714;51.208;4.242;2023-09-19T00:20:59;9.87;;;1.73;;
19163;SDS011;9714;51.208;4.242;2023-09-19T00:23:26;18.10;;;2.57;;
19163;SDS011;9714;51.208;4.242;2023-09-19T00:25:53;18.00;;;2.00;;
19163;SDS011;9714;51.208;4.242;2023-09-19T00:28:24;10.17;;;1.97;;
19163;SDS011;9714;51.208;4.242;2023-09-19T00:30:51;7.57;;;1.80;;
19163;SDS011;9714;51.208;4.242;2023-09-19T00:33:20;11.70;;;1.90;;
19163;SDS011;9714;51.208;4.242;2023-09-19T00:35:48;14.97;;;2.47;;
19163;SDS011;9714;51.208;4.242;2023-09-19T00:38:17;14.73;;;2.60;;
19163;SDS011;9714;51.208;4.242;2023-09-19T00:40:47;15.73;;;2.10;;
19163;SDS011;9714;51.208;4.242;2023-09-19T00:43:17;14.70;;;2.20;;
19163;SDS011;9714;51.208;4.242;2023-09-19T00:45:45;10.50;;;1.50;;
19163;SDS011;9714;51.208;4.242;2023-09-19T00:48:19;15.47;;;2.33;;
19163;SDS011;9714;51.208;4.242;2023-09-19T00:50:48;12.73;;;2.17;;
19163;SDS011;9714;51.208;4.242;2023-09-19T00:53:17;17.83;;;2.37;;
19163;SDS011;9714;51.208;4.242;2023-09-19T00:55:50;21.00;;;2.50;;
19163;SDS011;9714;51.208;4.242;2023-09-19T00:58:18;13.83;;;2.13;;
19163;SDS011;9714;51.208;4.242;2023-09-19T01:00:46;12.00;;;2.67;;
19163;SDS011;9714;51.208;4.242;2023-09-19T01:03:14;13.53;;;2.03;;
19163;SDS011;9714;51.208;4.242;2023-09-19T01:05:41;8.77;;;1.73;;
19163;SDS011;9714;51.208;4.242;2023-09-19T01:08:09;10.53;;;1.70;;
19163;SDS011;9714;51.208;4.242;2023-09-19T01:10:39;12.13;;;2.10;;
19163;SDS011;9714;51.208;4.242;2023-09-19T01:13:15;14.80;;;2.63;;
19163;SDS011;9714;51.208;4.242;2023-09-19T01:15:51;10.00;;;1.80;;
19163;SDS011;9714;51.208;4.242;2023-09-19T01:18:34;14.73;;;2.30;;
19163;SDS011;9714;51.208;4.242;2023-09-19T01:21:10;9.30;;;1.83;;
19163;SDS011;9714;51.208;4.242;2023-09-19T01:23:54;9.63;;;2.40;;
19163;SDS011;9714;51.208;4.242;2023-09-19T01:27:06;13.03;;;1.90;;
19163;SDS011;9714;51.208;4.242;2023-09-19T01:29:49;9.33;;;1.73;;
19163;SDS011;9714;51.208;4.242;2023-09-19T01:32:20;13.63;;;2.60;;
19163;SDS011;9714;51.208;4.242;2023-09-19T01:34:50;9.90;;;1.53;;
19163;SDS011;9714;51.208;4.242;2023-09-19T01:37:19;18.57;;;2.20;;
19163;SDS011;9714;51.208;4.242;2023-09-19T01:39:52;20.03;;;2.23;;
19163;SDS011;9714;51.208;4.242;2023-09-19T01:42:25;9.57;;;1.73;;
19163;SDS011;9714;51.208;4.242;2023-09-19T01:45:03;14.53;;;2.30;;
19163;SDS011;9714;51.208;4.242;2023-09-19T01:47:41;17.73;;;2.50;;
19163;SDS011;9714;51.208;4.242;2023-09-19T01:50:17;17.07;;;2.23;;
19163;SDS011;9714;51.208;4.242;2023-09-19T01:53:02;13.80;;;2.47;;
19163;SDS011;9714;51.208;4.242;2023-09-19T01:55:36;11.63;;;2.30;;
19163;SDS011;9714;51.208;4.242;2023-09-19T01:58:12;14.07;;;2.30;;
19163;SDS011;9714;51.208;4.242;2023-09-19T02:00:44;11.40;;;2.37;;
19163;SDS011;9714;51.208;4.242;2023-09-19T02:03:20;11.87;;;2.00;;
19163;SDS011;9714;51.208;4.242;2023-09-19T02:05:49;12.63;;;2.37;;
19163;SDS011;9714;51.208;4.242;2023-09-19T02:08:17;12.40;;;2.63;;
19163;SDS011;9714;51.208;4.242;2023-09-19T02:10:45;14.53;;;2.57;;
19163;SDS011;9714;51.208;4.242;2023-09-19T02:13:20;11.17;;;2.10;;
19163;SDS011;9714;51.208;4.242;2023-09-19T02:15:49;16.13;;;2.37;;
19163;SDS011;9714;51.208;4.242;2023-09-19T02:18:16;14.33;;;2.30;;
19163;SDS011;9714;51.208;4.242;2023-09-19T02:20:44;13.00;;;2.37;;
19163;SDS011;9714;51.208;4.242;2023-09-19T02:23:13;15.70;;;2.27;;
19163;SDS011;9714;51.208;4.242;2023-09-19T02:25:42;11.93;;;2.20;;
19163;SDS011;9714;51.208;4.242;2023-09-19T02:28:11;13.53;;;2.37;;
19163;SDS011;9714;51.208;4.242;2023-09-19T02:30:39;11.67;;;2.43;;
19163;SDS011;9714;51.208;4.242;2023-09-19T02:33:06;18.27;;;2.30;;
19163;SDS011;9714;51.208;4.242;2023-09-19T02:35:34;9.73;;;2.27;;
19163;SDS011;9714;51.208;4.242;2023-09-19T02:38:03;10.30;;;1.93;;
19163;SDS011;9714;51.208;4.242;2023-09-19T02:40:32;9.27;;;2.03;;
19163;SDS011;9714;51.208;4.242;2023-09-19T02:43:01;12.57;;;2.17;;
19163;SDS011;9714;51.208;4.242;2023-09-19T02:45:29;12.10;;;2.53;;
19163;SDS011;9714;51.208;4.242;2023-09-19T02:47:57;9.03;;;2.03;;
19163;SDS011;9714;51.208;4.242;2023-09-19T02:50:25;13.13;;;2.07;;
19163;SDS011;9714;51.208;4.242;2023-09-19T02:52:53;13.03;;;2.07;;
19163;SDS011;9714;51.208;4.242;2023-09-19T02:55:22;10.33;;;2.07;;
19163;SDS011;9714;51.208;4.242;2023-09-19T02:57:50;15.13;;;2.40;;
19163;SDS011;9714;51.208;4.242;2023-09-19T03:00:20;14.73;;;2.20;;
19163;SDS011;9714;51.208;4.242;2023-09-19T03:02:48;17.17;;;2.33;;
19163;SDS011;9714;51.208;4.242;2023-09-19T03:05:16;14.53;;;2.47;;
19163;SDS011;9714;51.208;4.242;2023-09-19T03:07:44;16.33;;;2.60;;
19163;SDS011;9714;51.208;4.242;2023-09-19T03:10:12;14.57;;;2.70;;
19163;SDS011;9714;51.208;4.242;2023-09-19T03:12:42;18.40;;;2.50;;
19163;SDS011;9714;51.208;4.242;2023-09-19T03:15:09;14.97;;;2.30;;
19163;SDS011;9714;51.208;4.242;2023-09-19T03:17:36;13.53;;;2.40;;
19163;SDS011;9714;51.208;4.242;2023-09-19T03:20:04;16.93;;;3.13;;
19163;SDS011;9714;51.208;4.242;2023-09-19T03:22:35;14.90;;;2.30;;
19163;SDS011;9714;51.208;4.242;2023-09-19T03:25:02;16.70;;;2.83;;
19163;SDS011;9714;51.208;4.242;2023-09-19T03:27:33;10.80;;;2.13;;
19163;SDS011;9714;51.208;4.242;2023-09-19T03:30:01;18.73;;;2.73;;
19163;SDS011;9714;51.208;4.242;2023-09-19T03:32:32;15.13;;;2.57;;
19163;SDS011;9714;51.208;4.242;2023-09-19T03:34:59;15.30;;;2.43;;
19163;SDS011;9714;51.208;4.242;2023-09-19T03:37:27;13.57;;;2.57;;
19163;SDS011;9714;51.208;4.242;2023-09-19T03:39:54;18.93;;;2.70;;
19163;SDS011;9714;51.208;4.242;2023-09-19T03:42:23;15.20;;;2.30;;
19163;SDS011;9714;51.208;4.242;2023-09-19T03:44:51;16.90;;;2.50;;
19163;SDS011;9714;51.208;4.242;2023-09-19T03:47:22;14.60;;;2.33;;
19163;SDS011;9714;51.208;4.242;2023-09-19T03:49:49;14.20;;;2.23;;
19163;SDS011;9714;51.208;4.242;2023-09-19T03:52:18;9.57;;;2.13;;
19163;SDS011;9714;51.208;4.242;2023-09-19T03:54:45;10.43;;;2.07;;
19163;SDS011;9714;51.208;4.242;2023-09-19T03:57:12;16.87;;;2.87;;
19163;SDS011;9714;51.208;4.242;2023-09-19T03:59:41;11.70;;;2.30;;
19163;SDS011;9714;51.208;4.242;2023-09-19T04:02:08;15.33;;;2.50;;
19163;SDS011;9714;51.208;4.242;2023-09-19T04:04:48;11.93;;;2.33;;
19163;SDS011;9714;51.208;4.242;2023-09-19T04:07:16;12.73;;;1.87;;
19163;SDS011;9714;51.208;4.242;2023-09-19T04:09:44;11.33;;;2.23;;
19163;SDS011;9714;51.208;4.242;2023-09-19T04:12:12;13.67;;;2.70;;
19163;SDS011;9714;51.208;4.242;2023-09-19T04:14:41;11.17;;;2.40;;
19163;SDS011;9714;51.208;4.242;2023-09-19T04:17:09;15.87;;;2.37;;
19163;SDS011;9714;51.208;4.242;2023-09-19T04:19:36;15.43;;;2.60;;
19163;SDS011;9714;51.208;4.242;2023-09-19T04:22:06;11.73;;;2.50;;
19163;SDS011;9714;51.208;4.242;2023-09-19T04:24:33;14.40;;;2.00;;
19163;SDS011;9714;51.208;4.242;2023-09-19T04:27:00;21.53;;;3.03;;
19163;SDS011;9714;51.208;4.242;2023-09-19T04:29:28;17.17;;;2.67;;
19163;SDS011;9714;51.208;4.242;2023-09-19T04:31:55;16.30;;;2.87;;
19163;SDS011;9714;51.208;4.242;2023-09-19T04:34:23;17.20;;;2.57;;
19163;SDS011;9714;51.208;4.242;2023-09-19T04:36:50;21.50;;;2.30;;
19163;SDS011;9714;51.208;4.242;2023-09-19T04:39:20;14.17;;;2.27;;
19163;SDS011;9714;51.208;4.242;2023-09-19T04:41:51;17.03;;;3.03;;
19163;SDS011;9714;51.208;4.242;2023-09-19T04:44:18;16.43;;;3.30;;
19163;SDS011;9714;51.208;4.242;2023-09-19T04:46:47;14.13;;;2.33;;
19163;SDS011;9714;51.208;4.242;2023-09-19T04:49:14;17.53;;;2.73;;
19163;SDS011;9714;51.208;4.242;2023-09-19T04:51:41;19.10;;;2.57;;
19163;SDS011;9714;51.208;4.242;2023-09-19T04:54:08;14.53;;;2.47;;
19163;SDS011;9714;51.208;4.242;2023-09-19T04:56:37;17.40;;;2.70;;
19163;SDS011;9714;51.208;4.242;2023-09-19T04:59:05;14.77;;;3.00;;
19163;SDS011;9714;51.208;4.242;2023-09-19T05:01:32;17.40;;;2.87;;
19163;SDS011;9714;51.208;4.242;2023-09-19T05:03:59;11.00;;;2.63;;
19163;SDS011;9714;51.208;4.242;2023-09-19T05:06:28;19.53;;;3.23;;
19163;SDS011;9714;51.208;4.242;2023-09-19T05:08:57;13.27;;;2.43;;
19163;SDS011;9714;51.208;4.242;2023-09-19T05:11:26;21.73;;;3.27;;
19163;SDS011;9714;51.208;4.242;2023-09-19T05:13:56;13.87;;;2.57;;
19163;SDS011;9714;51.208;4.242;2023-09-19T05:16:28;15.50;;;2.60;;
19163;SDS011;9714;51.208;4.242;2023-09-19T05:18:56;16.27;;;2.63;;
19163;SDS011;9714;51.208;4.242;2023-09-19T05:21:25;16.13;;;2.70;;
19163;SDS011;9714;51.208;4.242;2023-09-19T05:23:54;18.47;;;3.10;;
19163;SDS011;9714;51.208;4.242;2023-09-19T05:26:21;23.30;;;2.80;;
19163;SDS011;9714;51.208;4.242;2023-09-19T05:28:48;16.07;;;3.33;;
19163;SDS011;9714;51.208;4.242;2023-09-19T05:31:17;17.70;;;3.40;;
19163;SDS011;9714;51.208;4.242;2023-09-19T05:33:44;20.30;;;3.00;;
19163;SDS011;9714;51.208;4.242;2023-09-19T05:36:13;15.10;;;2.87;;
19163;SDS011;9714;51.208;4.242;2023-09-19T05:38:41;20.87;;;2.57;;
19163;SDS011;9714;51.208;4.242;2023-09-19T05:41:09;13.20;;;2.93;;
19163;SDS011;9714;51.208;4.242;2023-09-19T05:43:38;23.13;;;3.53;;
19163;SDS011;9714;51.208;4.242;2023-09-19T05:46:06;21.53;;;3.23;;
19163;SDS011;9714;51.208;4.242;2023-09-19T05:48:40;18.50;;;2.50;;
19163;SDS011;9714;51.208;4.242;2023-09-19T05:51:10;13.73;;;2.43;;
19163;SDS011;9714;51.208;4.242;2023-09-19T05:53:37;18.07;;;2.60;;
19163;SDS011;9714;51.208;4.242;2023-09-19T05:56:04;20.33;;;3.50;;
19163;SDS011;9714;51.208;4.242;2023-09-19T05:58:31;21.00;;;4.30;;
19163;SDS011;9714;51.208;4.242;2023-09-19T06:00:58;16.73;;;2.80;;
19163;SDS011;9714;51.208;4.242;2023-09-19T06:03:27;15.67;;;2.77;;
19163;SDS011;9714;51.208;4.242;2023-09-19T06:05:59;16.87;;;2.40;;
19163;SDS011;9714;51.208;4.242;2023-09-19T06:08:26;20.27;;;2.70;;
19163;SDS011;9714;51.208;4.242;2023-09-19T06:10:53;12.27;;;2.67;;
19163;SDS011;9714;51.208;4.242;2023-09-19T06:13:20;24.50;;;3.03;;
19163;SDS011;9714;51.208;4.242;2023-09-19T06:15:48;15.57;;;2.70;;
19163;SDS011;9714;51.208;4.242;2023-09-19T06:18:15;14.60;;;2.57;;
19163;SDS011;9714;51.208;4.242;2023-09-19T06:20:45;19.13;;;2.87;;
19163;SDS011;9714;51.208;4.242;2023-09-19T06:23:14;14.23;;;2.37;;
19163;SDS011;9714;51.208;4.242;2023-09-19T06:25:41;12.30;;;2.20;;
19163;SDS011;9714;51.208;4.242;2023-09-19T06:28:09;17.40;;;2.47;;
19163;SDS011;9714;51.208;4.242;2023-09-19T06:30:40;15.53;;;2.60;;
19163;SDS011;9714;51.208;4.242;2023-09-19T06:33:07;16.30;;;2.47;;
19163;SDS011;9714;51.208;4.242;2023-09-19T06:35:37;16.57;;;2.30;;
19163;SDS011;9714;51.208;4.242;2023-09-19T06:38:05;18.03;;;2.90;;
19163;SDS011;9714;51.208;4.242;2023-09-19T06:40:34;14.07;;;2.33;;
19163;SDS011;9714;51.208;4.242;2023-09-19T06:43:02;15.50;;;2.67;;
19163;SDS011;9714;51.208;4.242;2023-09-19T06:45:31;15.27;;;2.77;;
19163;SDS011;9714;51.208;4.242;2023-09-19T06:47:58;16.90;;;2.53;;
19163;SDS011;9714;51.208;4.242;2023-09-19T06:50:28;14.13;;;2.30;;
19163;SDS011;9714;51.208;4.242;2023-09-19T06:52:56;18.10;;;3.30;;
19163;SDS011;9714;51.208;4.242;2023-09-19T06:55:24;12.13;;;2.23;;
19163;SDS011;9714;51.208;4.242;2023-09-19T06:57:54;19.37;;;2.10;;
19163;SDS011;9714;51.208;4.242;2023-09-19T07:00:21;13.57;;;2.63;;
19163;SDS011;9714;51.208;4.242;2023-09-19T07:02:56;15.17;;;3.27;;
19163;SDS011;9714;51.208;4.242;2023-09-19T07:05:27;13.90;;;2.80;;
19163;SDS011;9714;51.208;4.242;2023-09-19T07:07:54;18.73;;;2.83;;
19163;SDS011;9714;51.208;4.242;2023-09-19T07:10:22;15.60;;;2.50;;
19163;SDS011;9714;51.208;4.242;2023-09-19T07:12:58;16.10;;;3.03;;
19163;SDS011;9714;51.208;4.242;2023-09-19T07:15:28;10.77;;;3.20;;
19163;SDS011;9714;51.208;4.242;2023-09-19T07:17:56;15.63;;;3.33;;
19163;SDS011;9714;51.208;4.242;2023-09-19T07:20:23;13.07;;;2.63;;
19163;SDS011;9714;51.208;4.242;2023-09-19T07:22:52;13.60;;;2.50;;
19163;SDS011;9714;51.208;4.242;2023-09-19T07:25:20;10.70;;;2.63;;
19163;SDS011;9714;51.208;4.242;2023-09-19T07:27:47;15.27;;;2.97;;
19163;SDS011;9714;51.208;4.242;2023-09-19T07:30:16;13.60;;;2.33;;
19163;SDS011;9714;51.208;4.242;2023-09-19T07:32:43;15.77;;;2.60;;
19163;SDS011;9714;51.208;4.242;2023-09-19T07:35:10;10.80;;;2.27;;
19163;SDS011;9714;51.208;4.242;2023-09-19T07:37:38;15.10;;;2.53;;
19163;SDS011;9714;51.208;4.242;2023-09-19T07:40:06;11.63;;;2.20;;
19163;SDS011;9714;51.208;4.242;2023-09-19T07:42:34;12.83;;;2.10;;
19163;SDS011;9714;51.208;4.242;2023-09-19T07:45:06;15.60;;;2.93;;
19163;SDS011;9714;51.208;4.242;2023-09-19T07:47:35;9.73;;;1.90;;
19163;SDS011;9714;51.208;4.242;2023-09-19T07:50:02;8.50;;;1.77;;
19163;SDS011;9714;51.208;4.242;2023-09-19T07:52:32;18.13;;;3.17;;
19163;SDS011;9714;51.208;4.242;2023-09-19T07:54:59;12.50;;;2.30;;
19163;SDS011;9714;51.208;4.242;2023-09-19T07:57:32;17.80;;;2.53;;
19163;SDS011;9714;51.208;4.242;2023-09-19T08:00:00;14.50;;;2.63;;
19163;SDS011;9714;51.208;4.242;2023-09-19T08:02:30;15.23;;;2.43;;
19163;SDS011;9714;51.208;4.242;2023-09-19T08:05:01;9.50;;;2.03;;
19163;SDS011;9714;51.208;4.242;2023-09-19T08:07:31;12.17;;;2.30;;
19163;SDS011;9714;51.208;4.242;2023-09-19T08:09:58;16.30;;;3.00;;
19163;SDS011;9714;51.208;4.242;2023-09-19T08:12:25;15.17;;;2.63;;
19163;SDS011;9714;51.208;4.242;2023-09-19T08:14:52;7.70;;;2.00;;
19163;SDS011;9714;51.208;4.242;2023-09-19T08:17:21;14.57;;;2.50;;
19163;SDS011;9714;51.208;4.242;2023-09-19T08:19:51;20.60;;;2.22;;
19163;SDS011;9714;51.208;4.242;2023-09-19T08:22:19;13.68;;;2.60;;
19163;SDS011;9714;51.208;4.242;2023-09-19T08:24:48;11.50;;;2.97;;
19163;SDS011;9714;51.208;4.242;2023-09-19T08:27:16;15.02;;;2.30;;
19163;SDS011;9714;51.208;4.242;2023-09-19T08:29:44;14.63;;;2.40;;
19163;SDS011;9714;51.208;4.242;2023-09-19T08:32:12;14.38;;;2.55;;
19163;SDS011;9714;51.208;4.242;2023-09-19T08:34:40;17.65;;;3.53;;
19163;SDS011;9714;51.208;4.242;2023-09-19T08:37:08;13.90;;;2.72;;
19163;SDS011;9714;51.208;4.242;2023-09-19T08:39:40;16.05;;;1.90;;
19163;SDS011;9714;51.208;4.242;2023-09-19T08:42:07;12.60;;;2.80;;
19163;SDS011;9714;51.208;4.242;2023-09-19T08:44:36;14.52;;;2.50;;
19163;SDS011;9714;51.208;4.242;2023-09-19T08:47:08;12.60;;;2.55;;
19163;SDS011;9714;51.208;4.242;2023-09-19T08:49:39;9.68;;;2.30;;
19163;SDS011;9714;51.208;4.242;2023-09-19T08:52:16;13.80;;;2.58;;
19163;SDS011;9714;51.208;4.242;2023-09-19T08:54:50;14.95;;;2.88;;
19163;SDS011;9714;51.208;4.242;2023-09-19T08:57:19;10.25;;;1.90;;
19163;SDS011;9714;51.208;4.242;2023-09-19T08:59:47;20.70;;;2.90;;
19163;SDS011;9714;51.208;4.242;2023-09-19T09:02:15;16.58;;;2.42;;
19163;SDS011;9714;51.208;4.242;2023-09-19T09:04:45;10.02;;;1.88;;
19163;SDS011;9714;51.208;4.242;2023-09-19T09:07:13;13.70;;;2.38;;
19163;SDS011;9714;51.208;4.242;2023-09-19T09:09:42;14.40;;;2.85;;
19163;SDS011;9714;51.208;4.242;2023-09-19T09:12:12;17.15;;;2.47;;
19163;SDS011;9714;51.208;4.242;2023-09-19T09:14:40;13.35;;;2.15;;
19163;SDS011;9714;51.208;4.242;2023-09-19T09:17:15;13.15;;;1.83;;
19163;SDS011;9714;51.208;4.242;2023-09-19T09:19:45;13.15;;;2.30;;
19163;SDS011;9714;51.208;4.242;2023-09-19T09:22:12;11.68;;;2.17;;
19163;SDS011;9714;51.208;4.242;2023-09-19T09:24:50;12.30;;;2.03;;
19163;SDS011;9714;51.208;4.242;2023-09-19T09:27:20;11.65;;;2.08;;
19163;SDS011;9714;51.208;4.242;2023-09-19T09:29:49;14.88;;;1.90;;
19163;SDS011;9714;51.208;4.242;2023-09-19T09:32:20;14.32;;;2.80;;
19163;SDS011;9714;51.208;4.242;2023-09-19T09:34:51;10.15;;;2.20;;
19163;SDS011;9714;51.208;4.242;2023-09-19T09:37:20;12.55;;;2.28;;
19163;SDS011;9714;51.208;4.242;2023-09-19T09:39:50;15.32;;;2.63;;
19163;SDS011;9714;51.208;4.242;2023-09-19T09:42:32;9.88;;;1.65;;
19163;SDS011;9714;51.208;4.242;2023-09-19T09:45:14;12.35;;;1.90;;
19163;SDS011;9714;51.208;4.242;2023-09-19T09:47:46;10.20;;;1.75;;
19163;SDS011;9714;51.208;4.242;2023-09-19T09:50:26;12.05;;;1.90;;
19163;SDS011;9714;51.208;4.242;2023-09-19T09:53:03;12.23;;;2.00;;
19163;SDS011;9714;51.208;4.242;2023-09-19T09:55:56;12.30;;;1.80;;
19163;SDS011;9714;51.208;4.242;2023-09-19T09:58:28;9.40;;;1.45;;
19163;SDS011;9714;51.208;4.242;2023-09-19T10:00:57;12.50;;;1.70;;
19163;SDS011;9714;51.208;4.242;2023-09-19T10:03:31;8.38;;;1.73;;
19163;SDS011;9714;51.208;4.242;2023-09-19T10:06:05;11.80;;;1.52;;
19163;SDS011;9714;51.208;4.242;2023-09-19T10:09:00;8.57;;;1.80;;
19163;SDS011;9714;51.208;4.242;2023-09-19T10:11:42;7.10;;;1.48;;
19163;SDS011;9714;51.208;4.242;2023-09-19T10:14:12;7.15;;;1.48;;
19163;SDS011;9714;51.208;4.242;2023-09-19T10:16:44;10.50;;;1.60;;
19163;SDS011;9714;51.208;4.242;2023-09-19T10:19:15;9.02;;;1.52;;
19163;SDS011;9714;51.208;4.242;2023-09-19T10:21:49;10.63;;;1.30;;
19163;SDS011;9714;51.208;4.242;2023-09-19T10:24:21;5.78;;;1.00;;
19163;SDS011;9714;51.208;4.242;2023-09-19T10:26:52;8.48;;;1.45;;
19163;SDS011;9714;51.208;4.242;2023-09-19T10:29:23;8.23;;;1.10;;
19163;SDS011;9714;51.208;4.242;2023-09-19T10:31:54;6.28;;;1.02;;
19163;SDS011;9714;51.208;4.242;2023-09-19T10:34:23;5.43;;;0.82;;
19163;SDS011;9714;51.208;4.242;2023-09-19T10:36:53;8.43;;;1.00;;
19163;SDS011;9714;51.208;4.242;2023-09-19T10:39:21;12.43;;;2.72;;
19163;SDS011;9714;51.208;4.242;2023-09-19T10:41:50;12.80;;;1.45;;
19163;SDS011;9714;51.208;4.242;2023-09-19T10:44:21;9.82;;;1.40;;
19163;SDS011;9714;51.208;4.242;2023-09-19T10:46:51;10.82;;;1.77;;
19163;SDS011;9714;51.208;4.242;2023-09-19T10:49:20;5.90;;;1.00;;
19163;SDS011;9714;51.208;4.242;2023-09-19T10:51:54;14.23;;;1.25;;
19163;SDS011;9714;51.208;4.242;2023-09-19T10:54:30;12.10;;;1.20;;
19163;SDS011;9714;51.208;4.242;2023-09-19T10:57:02;5.60;;;1.38;;
19163;SDS011;9714;51.208;4.242;2023-09-19T10:59:38;7.65;;;1.10;;
19163;SDS011;9714;51.208;4.242;2023-09-19T11:06:01;7.72;;;1.15;;
19163;SDS011;9714;51.208;4.242;2023-09-19T11:08:30;7.35;;;1.02;;
19163;SDS011;9714;51.208;4.242;2023-09-19T11:14:28;10.70;;;1.20;;
19163;SDS011;9714;51.208;4.242;2023-09-19T11:20:19;7.20;;;1.52;;
19163;SDS011;9714;51.208;4.242;2023-09-19T11:23:19;9.25;;;1.48;;
19163;SDS011;9714;51.208;4.242;2023-09-19T11:25:51;4.28;;;0.73;;
19163;SDS011;9714;51.208;4.242;2023-09-19T11:28:34;6.97;;;0.93;;
19163;SDS011;9714;51.208;4.242;2023-09-19T11:40:41;4.82;;;0.63;;
19163;SDS011;9714;51.208;4.242;2023-09-19T11:43:32;5.15;;;0.90;;
19163;SDS011;9714;51.208;4.242;2023-09-19T11:46:05;6.63;;;1.15;;
19163;SDS011;9714;51.208;4.242;2023-09-19T11:48:33;4.43;;;0.60;;
19163;SDS011;9714;51.208;4.242;2023-09-19T11:51:13;7.07;;;0.90;;
19163;SDS011;9714;51.208;4.242;2023-09-19T11:53:50;9.75;;;1.40;;
19163;SDS011;9714;51.208;4.242;2023-09-19T11:56:20;4.45;;;1.48;;
19163;SDS011;9714;51.208;4.242;2023-09-19T11:58:50;9.73;;;0.98;;
19163;SDS011;9714;51.208;4.242;2023-09-19T12:01:24;7.18;;;0.70;;
19163;SDS011;9714;51.208;4.242;2023-09-19T12:03:55;2.03;;;0.50;;
19163;SDS011;9714;51.208;4.242;2023-09-19T12:06:24;4.65;;;1.00;;
19163;SDS011;9714;51.208;4.242;2023-09-19T12:08:52;5.47;;;1.10;;
19163;SDS011;9714;51.208;4.242;2023-09-19T12:11:22;2.90;;;0.73;;
19163;SDS011;9714;51.208;4.242;2023-09-19T12:13:50;8.48;;;2.20;;
19163;SDS011;9714;51.208;4.242;2023-09-19T12:16:18;6.20;;;0.68;;
19163;SDS011;9714;51.208;4.242;2023-09-19T12:18:48;7.70;;;1.25;;
19163;SDS011;9714;51.208;4.242;2023-09-19T12:21:23;8.30;;;1.35;;
19163;SDS011;9714;51.208;4.242;2023-09-19T12:23:58;5.85;;;0.77;;
19163;SDS011;9714;51.208;4.242;2023-09-19T12:26:31;6.90;;;1.23;;
19163;SDS011;9714;51.208;4.242;2023-09-19T12:29:10;9.13;;;0.75;;
19163;SDS011;9714;51.208;4.242;2023-09-19T12:31:52;5.40;;;0.90;;
19163;SDS011;9714;51.208;4.242;2023-09-19T12:34:23;7.65;;;1.25;;
19163;SDS011;9714;51.208;4.242;2023-09-19T12:37:06;7.18;;;1.25;;
19163;SDS011;9714;51.208;4.242;2023-09-19T12:39:41;5.32;;;1.10;;
19163;SDS011;9714;51.208;4.242;2023-09-19T12:42:15;6.85;;;0.63;;
19163;SDS011;9714;51.208;4.242;2023-09-19T12:44:44;5.88;;;0.98;;
19163;SDS011;9714;51.208;4.242;2023-09-19T12:47:12;6.25;;;1.50;;
19163;SDS011;9714;51.208;4.242;2023-09-19T12:52:39;4.32;;;1.23;;
19163;SDS011;9714;51.208;4.242;2023-09-19T12:55:19;7.38;;;1.27;;
19163;SDS011;9714;51.208;4.242;2023-09-19T13:12:43;9.68;;;1.33;;
19163;SDS011;9714;51.208;4.242;2023-09-19T13:15:30;6.20;;;1.05;;
19163;SDS011;9714;51.208;4.242;2023-09-19T13:18:23;7.88;;;1.35;;
19163;SDS011;9714;51.208;4.242;2023-09-19T13:24:20;6.95;;;1.17;;
19163;SDS011;9714;51.208;4.242;2023-09-19T13:26:53;6.60;;;2.22;;
19163;SDS011;9714;51.208;4.242;2023-09-19T13:29:20;15.25;;;1.45;;
19163;SDS011;9714;51.208;4.242;2023-09-19T13:31:48;11.48;;;1.73;;
19163;SDS011;9714;51.208;4.242;2023-09-19T13:34:18;5.47;;;1.17;;
19163;SDS011;9714;51.208;4.242;2023-09-19T13:36:46;7.45;;;1.65;;
19163;SDS011;9714;51.208;4.242;2023-09-19T13:39:13;7.32;;;1.30;;
19163;SDS011;9714;51.208;4.242;2023-09-19T13:41:41;8.52;;;1.67;;
19163;SDS011;9714;51.208;4.242;2023-09-19T13:44:08;8.55;;;1.90;;
19163;SDS011;9714;51.208;4.242;2023-09-19T13:46:36;10.48;;;1.60;;
19163;SDS011;9714;51.208;4.242;2023-09-19T13:49:05;8.00;;;1.35;;
19163;SDS011;9714;51.208;4.242;2023-09-19T13:51:32;5.63;;;1.25;;
19163;SDS011;9714;51.208;4.242;2023-09-19T13:53:59;10.15;;;1.40;;
19163;SDS011;9714;51.208;4.242;2023-09-19T13:56:26;8.50;;;1.50;;
19163;SDS011;9714;51.208;4.242;2023-09-19T13:58:56;8.57;;;1.40;;
19163;SDS011;9714;51.208;4.242;2023-09-19T14:01:23;7.03;;;1.52;;
19163;SDS011;9714;51.208;4.242;2023-09-19T14:03:52;5.47;;;0.95;;
19163;SDS011;9714;51.208;4.242;2023-09-19T14:06:23;6.03;;;1.15;;
19163;SDS011;9714;51.208;4.242;2023-09-19T14:08:51;7.07;;;1.35;;
19163;SDS011;9714;51.208;4.242;2023-09-19T14:11:26;6.20;;;1.38;;
19163;SDS011;9714;51.208;4.242;2023-09-19T14:13:54;12.68;;;2.28;;
19163;SDS011;9714;51.208;4.242;2023-09-19T14:16:24;4.78;;;1.15;;
19163;SDS011;9714;51.208;4.242;2023-09-19T14:18:55;5.65;;;1.23;;
19163;SDS011;9714;51.208;4.242;2023-09-19T14:21:23;6.60;;;1.05;;
19163;SDS011;9714;51.208;4.242;2023-09-19T14:23:50;8.75;;;1.25;;
19163;SDS011;9714;51.208;4.242;2023-09-19T14:26:19;7.13;;;1.30;;
19163;SDS011;9714;51.208;4.242;2023-09-19T14:28:49;7.40;;;1.08;;
19163;SDS011;9714;51.208;4.242;2023-09-19T14:31:22;6.85;;;1.30;;
19163;SDS011;9714;51.208;4.242;2023-09-19T14:33:53;12.20;;;1.83;;
19163;SDS011;9714;51.208;4.242;2023-09-19T14:36:23;5.30;;;1.10;;
19163;SDS011;9714;51.208;4.242;2023-09-19T14:38:52;8.30;;;1.48;;
19163;SDS011;9714;51.208;4.242;2023-09-19T14:41:25;10.88;;;1.85;;
19163;SDS011;9714;51.208;4.242;2023-09-19T14:43:55;10.27;;;1.42;;
19163;SDS011;9714;51.208;4.242;2023-09-19T14:46:23;7.03;;;1.20;;
19163;SDS011;9714;51.208;4.242;2023-09-19T14:48:56;8.60;;;1.40;;
19163;SDS011;9714;51.208;4.242;2023-09-19T14:51:28;12.65;;;1.60;;
19163;SDS011;9714;51.208;4.242;2023-09-19T14:53:57;6.35;;;1.00;;
19163;SDS011;9714;51.208;4.242;2023-09-19T14:56:26;7.25;;;1.15;;
19163;SDS011;9714;51.208;4.242;2023-09-19T14:58:56;6.90;;;1.10;;
19163;SDS011;9714;51.208;4.242;2023-09-19T15:01:23;6.68;;;1.38;;
19163;SDS011;9714;51.208;4.242;2023-09-19T15:03:50;5.50;;;1.27;;
19163;SDS011;9714;51.208;4.242;2023-09-19T15:06:22;10.38;;;1.40;;
19163;SDS011;9714;51.208;4.242;2023-09-19T15:08:53;6.38;;;1.17;;
19163;SDS011;9714;51.208;4.242;2023-09-19T15:11:21;9.18;;;1.73;;
19163;SDS011;9714;51.208;4.242;2023-09-19T15:13:50;7.05;;;1.20;;
19163;SDS011;9714;51.208;4.242;2023-09-19T15:16:20;7.40;;;1.60;;
19163;SDS011;9714;51.208;4.242;2023-09-19T15:18:48;10.02;;;2.13;;
19163;SDS011;9714;51.208;4.242;2023-09-19T15:21:17;6.95;;;1.50;;
19163;SDS011;9714;51.208;4.242;2023-09-19T15:23:44;9.52;;;1.65;;
19163;SDS011;9714;51.208;4.242;2023-09-19T15:26:14;7.90;;;1.35;;
19163;SDS011;9714;51.208;4.242;2023-09-19T15:28:46;7.68;;;1.90;;
19163;SDS011;9714;51.208;4.242;2023-09-19T15:31:13;8.98;;;1.40;;
19163;SDS011;9714;51.208;4.242;2023-09-19T15:33:40;18.25;;;2.00;;
19163;SDS011;9714;51.208;4.242;2023-09-19T15:36:08;7.50;;;1.85;;
19163;SDS011;9714;51.208;4.242;2023-09-19T15:41:25;7.70;;;1.67;;
19163;SDS011;9714;51.208;4.242;2023-09-19T15:43:53;8.23;;;1.83;;
19163;SDS011;9714;51.208;4.242;2023-09-19T15:46:21;11.38;;;1.77;;
19163;SDS011;9714;51.208;4.242;2023-09-19T15:48:49;8.07;;;1.70;;
19163;SDS011;9714;51.208;4.242;2023-09-19T15:51:16;9.93;;;2.15;;
19163;SDS011;9714;51.208;4.242;2023-09-19T15:53:43;10.85;;;1.48;;
19163;SDS011;9714;51.208;4.242;2023-09-19T15:56:12;9.52;;;1.67;;
19163;SDS011;9714;51.208;4.242;2023-09-19T15:58:40;9.52;;;1.77;;